createdAt,value
2019-03-22T00:01:35.318Z,20.07
2019-03-22T00:04:04.318Z,19.63
2019-03-22T00:06:33.422Z,20.40
2019-03-22T00:09:02.439Z,18.93
2019-03-22T00:11:31.460Z,18.33
2019-03-22T00:14:00.474Z,19.07
2019-03-22T00:16:29.559Z,17.37
2019-03-22T00:18:58.666Z,16.70
2019-03-22T00:21:27.745Z,15.97
2019-03-22T00:23:56.740Z,17.23
2019-03-22T00:26:25.811Z,16.33
2019-03-22T00:28:54.868Z,16.63
2019-03-22T00:31:23.905Z,15.97
2019-03-22T00:33:52.888Z,16.27
2019-03-22T00:36:21.951Z,16.17
2019-03-22T00:38:50.927Z,15.27
2019-03-22T00:41:19.922Z,15.37
2019-03-22T00:43:48.946Z,15.10
2019-03-22T00:46:17.920Z,14.83
2019-03-22T00:48:46.988Z,14.70
2019-03-22T00:51:16.055Z,14.27
2019-03-22T00:53:45.035Z,12.93
2019-03-22T00:56:14.048Z,12.83
2019-03-22T00:58:43.083Z,14.13
2019-03-22T01:01:12.187Z,14.10
2019-03-22T01:03:41.385Z,13.03
2019-03-22T01:06:10.431Z,12.60
2019-03-22T01:08:40.616Z,13.10
2019-03-22T01:11:09.656Z,14.20
2019-03-22T01:13:38.678Z,13.93
2019-03-22T01:16:07.681Z,14.73
2019-03-22T01:18:36.672Z,14.60
2019-03-22T01:21:05.669Z,13.93
2019-03-22T01:23:34.720Z,14.07
2019-03-22T01:26:03.721Z,14.57
2019-03-22T01:28:32.778Z,16.00
2019-03-22T01:31:01.842Z,14.53
2019-03-22T01:33:30.826Z,15.50
2019-03-22T01:35:59.868Z,16.10
2019-03-22T01:38:31.322Z,16.10
2019-03-22T01:41:00.310Z,16.83
2019-03-22T01:43:30.205Z,15.10
2019-03-22T01:45:59.196Z,16.53
2019-03-22T01:48:28.245Z,15.40
2019-03-22T01:50:57.241Z,14.67
2019-03-22T01:53:26.226Z,15.80
2019-03-22T01:55:55.199Z,16.87
2019-03-22T01:58:26.617Z,16.23
2019-03-22T02:00:55.580Z,15.60
2019-03-22T02:03:24.637Z,16.90
2019-03-22T02:05:53.605Z,16.97
2019-03-22T02:08:22.654Z,16.17
2019-03-22T02:10:53.713Z,16.33
2019-03-22T02:13:22.452Z,17.03
2019-03-22T02:15:52.824Z,17.00
2019-03-22T02:18:21.856Z,17.63
2019-03-22T02:20:50.834Z,17.23
2019-03-22T02:23:19.894Z,16.73
2019-03-22T02:25:48.961Z,17.53
2019-03-22T02:28:18.017Z,17.03
2019-03-22T02:30:47.018Z,17.43
2019-03-22T02:33:16.016Z,17.77
2019-03-22T02:35:45.075Z,17.30
2019-03-22T02:38:14.061Z,17.83
2019-03-22T02:40:43.063Z,18.27
2019-03-22T02:43:15.987Z,16.60
2019-03-22T02:45:44.996Z,17.17
2019-03-22T02:48:14.066Z,16.00
2019-03-22T02:50:43.031Z,16.93
2019-03-22T02:53:12.027Z,16.87
2019-03-22T02:55:41.128Z,17.77
2019-03-22T02:58:20.404Z,17.10
2019-03-22T03:00:40.852Z,18.10
2019-03-22T03:03:09.851Z,17.80
2019-03-22T03:05:39.931Z,18.47
2019-03-22T03:08:08.938Z,16.67
2019-03-22T03:10:38.019Z,18.07
2019-03-22T03:13:06.985Z,17.87
2019-03-22T03:15:36.308Z,17.97
2019-03-22T03:18:05.385Z,18.27
2019-03-22T03:20:34.431Z,17.60
2019-03-22T03:23:03.505Z,19.73
2019-03-22T03:25:32.531Z,20.30
2019-03-22T03:28:01.528Z,19.70
2019-03-22T03:30:30.564Z,18.83
2019-03-22T03:32:59.588Z,18.57
2019-03-22T03:35:28.560Z,20.53
2019-03-22T03:37:57.603Z,17.73
2019-03-22T03:40:26.702Z,20.20
2019-03-22T03:42:55.782Z,18.77
2019-03-22T03:45:32.454Z,20.90
2019-03-22T03:48:01.515Z,18.80
2019-03-22T03:50:30.589Z,18.10
2019-03-22T03:52:59.695Z,20.10
2019-03-22T03:55:28.827Z,21.37
2019-03-22T03:57:58.175Z,19.40
2019-03-22T04:00:27.233Z,19.63
2019-03-22T04:02:56.243Z,21.13
2019-03-22T04:05:25.433Z,21.50
2019-03-22T04:07:54.484Z,20.23
2019-03-22T04:10:23.465Z,20.40
2019-03-22T04:12:52.456Z,20.73
2019-03-22T04:15:21.513Z,19.87
2019-03-22T04:17:50.492Z,21.70
2019-03-22T04:20:19.491Z,21.50
2019-03-22T04:22:48.468Z,20.27
2019-03-22T04:25:17.547Z,23.20
2019-03-22T04:27:46.634Z,21.60
2019-03-22T04:30:15.653Z,21.40
2019-03-22T04:32:44.691Z,21.50
2019-03-22T04:35:13.758Z,20.80
2019-03-22T04:37:42.815Z,21.37
2019-03-22T04:40:19.982Z,22.17
2019-03-22T04:42:48.970Z,21.07
2019-03-22T04:45:17.988Z,20.57
2019-03-22T04:47:47.638Z,21.83
2019-03-22T04:50:16.636Z,21.03
2019-03-22T04:52:46.347Z,21.40
2019-03-22T04:55:18.109Z,22.80
2019-03-22T04:57:47.271Z,20.90
2019-03-22T05:00:16.543Z,21.00
2019-03-22T05:02:46.217Z,20.70
2019-03-22T05:05:15.372Z,18.47
2019-03-22T05:07:44.755Z,21.23
2019-03-22T05:10:14.352Z,19.30
2019-03-22T05:12:43.920Z,21.27
2019-03-22T05:15:12.804Z,19.93
2019-03-22T05:17:41.935Z,22.27
2019-03-22T05:20:10.936Z,19.70
2019-03-22T05:22:41.061Z,19.17
2019-03-22T05:25:10.575Z,20.80
2019-03-22T05:27:41.160Z,21.07
2019-03-22T05:30:16.249Z,21.57
2019-03-22T05:32:45.262Z,22.30
2019-03-22T05:35:14.339Z,21.33
2019-03-22T05:37:43.426Z,20.83
2019-03-22T05:40:12.432Z,21.37
2019-03-22T05:42:41.518Z,21.07
2019-03-22T05:45:10.542Z,20.80
2019-03-22T05:47:39.605Z,22.07
2019-03-22T05:50:12.780Z,22.07
2019-03-22T05:52:41.822Z,20.23
2019-03-22T05:55:10.953Z,22.17
2019-03-22T05:57:40.168Z,21.93
2019-03-22T06:00:09.344Z,21.93
2019-03-22T06:02:38.453Z,21.53
2019-03-22T06:05:07.742Z,21.50
2019-03-22T06:07:37.169Z,21.37
2019-03-22T06:10:06.431Z,22.67
2019-03-22T06:12:35.471Z,21.57
2019-03-22T06:15:04.587Z,19.70
2019-03-22T06:17:33.691Z,20.47
2019-03-22T06:20:02.742Z,19.93
2019-03-22T06:22:31.751Z,22.43
2019-03-22T06:25:00.754Z,21.67
2019-03-22T06:27:31.301Z,23.37
2019-03-22T06:30:00.428Z,23.30
2019-03-22T06:32:29.402Z,21.10
2019-03-22T06:34:58.480Z,21.53
2019-03-22T06:37:27.522Z,20.07
2019-03-22T06:39:56.586Z,20.37
2019-03-22T06:42:25.593Z,21.27
2019-03-22T06:44:54.643Z,19.63
2019-03-22T06:47:23.622Z,22.07
2019-03-22T06:49:52.649Z,22.67
2019-03-22T06:52:21.709Z,20.70
2019-03-22T06:54:50.686Z,20.00
2019-03-22T06:57:19.726Z,22.53
2019-03-22T06:59:48.721Z,22.63
2019-03-22T07:02:17.685Z,23.20
2019-03-22T07:04:46.715Z,21.80
2019-03-22T07:07:15.736Z,23.53
2019-03-22T07:09:44.770Z,22.53
2019-03-22T07:12:13.761Z,24.10
2019-03-22T07:14:42.859Z,24.30
2019-03-22T07:17:11.923Z,23.20
2019-03-22T07:19:43.095Z,22.97
2019-03-22T07:22:12.133Z,22.80
2019-03-22T07:24:41.156Z,21.93
2019-03-22T07:27:10.208Z,23.60
2019-03-22T07:29:39.277Z,24.60
2019-03-22T07:32:08.263Z,26.20
2019-03-22T07:34:37.355Z,24.83
2019-03-22T07:37:06.327Z,23.93
2019-03-22T07:39:35.314Z,26.43
2019-03-22T07:42:04.334Z,24.67
2019-03-22T07:44:33.391Z,24.70
2019-03-22T07:47:02.364Z,25.37
2019-03-22T07:49:31.412Z,26.30
2019-03-22T07:52:00.417Z,25.17
2019-03-22T07:54:29.493Z,24.83
2019-03-22T07:56:58.471Z,24.83
2019-03-22T07:59:27.492Z,23.17
2019-03-22T08:01:56.507Z,28.03
2019-03-22T08:04:25.517Z,25.33
2019-03-22T08:06:54.570Z,24.63
2019-03-22T08:09:23.671Z,26.43
2019-03-22T08:11:52.985Z,22.13
2019-03-22T08:14:22.150Z,22.30
2019-03-22T08:16:51.124Z,20.73
2019-03-22T08:19:20.125Z,21.87
2019-03-22T08:21:49.165Z,22.13
2019-03-22T08:24:18.209Z,20.50
2019-03-22T08:26:47.278Z,20.07
2019-03-22T08:29:16.266Z,19.70
2019-03-22T08:31:45.332Z,17.60
2019-03-22T08:34:14.343Z,19.17
2019-03-22T08:36:43.449Z,17.80
2019-03-22T08:39:12.525Z,18.57
2019-03-22T08:41:41.557Z,17.77
2019-03-22T08:44:10.668Z,17.63
2019-03-22T08:46:39.772Z,18.00
2019-03-22T08:49:09.620Z,18.30
2019-03-22T08:51:38.896Z,18.80
2019-03-22T08:54:07.954Z,18.80
2019-03-22T08:56:37.054Z,19.13
2019-03-22T08:59:06.114Z,17.70
2019-03-22T09:01:35.102Z,17.20
2019-03-22T09:04:04.241Z,17.97
2019-03-22T09:06:33.749Z,18.23
2019-03-22T09:09:04.530Z,19.00
2019-03-22T09:11:33.575Z,18.07
2019-03-22T09:14:03.142Z,18.33
2019-03-22T09:16:32.324Z,18.57
2019-03-22T09:19:01.320Z,18.00
2019-03-22T09:21:30.400Z,18.13
2019-03-22T09:23:59.631Z,17.83
2019-03-22T09:26:28.689Z,16.63
2019-03-22T09:28:57.772Z,17.87
2019-03-22T09:31:26.860Z,18.23
2019-03-22T09:33:55.875Z,17.43
2019-03-22T09:36:24.911Z,17.67
2019-03-22T09:38:53.890Z,16.43
2019-03-22T09:41:22.938Z,16.47
2019-03-22T09:43:52.036Z,17.33
2019-03-22T09:46:21.124Z,16.93
2019-03-22T09:48:50.229Z,16.67
2019-03-22T09:51:19.229Z,17.40
2019-03-22T09:53:48.291Z,16.33
2019-03-22T09:56:17.418Z,15.53
2019-03-22T09:58:46.451Z,16.47
2019-03-22T10:01:23.616Z,14.50
2019-03-22T10:03:46.279Z,15.27
2019-03-22T10:06:15.345Z,15.23
2019-03-22T10:08:44.405Z,15.37
2019-03-22T10:11:13.521Z,16.20
2019-03-22T10:13:42.653Z,16.63
2019-03-22T10:16:11.704Z,17.13
2019-03-22T10:18:40.861Z,16.53
2019-03-22T10:21:21.917Z,15.37
2019-03-22T10:23:40.728Z,16.23
2019-03-22T10:26:09.821Z,15.50
2019-03-22T10:28:38.930Z,17.67
2019-03-22T10:31:08.349Z,16.80
2019-03-22T10:33:37.478Z,16.53
2019-03-22T10:36:07.025Z,16.83
2019-03-22T10:38:36.302Z,16.87
2019-03-22T10:41:05.740Z,18.27
2019-03-22T10:43:34.962Z,18.67
2019-03-22T10:46:07.753Z,19.50
2019-03-22T10:48:35.440Z,19.70
2019-03-22T10:51:04.972Z,19.07
2019-03-22T10:53:34.038Z,19.50
2019-03-22T10:56:03.107Z,18.63
2019-03-22T10:58:32.223Z,19.13
2019-03-22T11:01:01.410Z,21.27
2019-03-22T11:03:30.507Z,21.33
2019-03-22T11:05:59.529Z,19.90
2019-03-22T11:08:28.598Z,19.27
2019-03-22T11:10:57.621Z,19.43
2019-03-22T11:13:28.752Z,19.27
2019-03-22T11:15:57.985Z,19.83
2019-03-22T11:18:36.786Z,21.03
2019-03-22T11:21:05.086Z,19.53
2019-03-22T11:23:29.514Z,19.53
2019-03-22T11:26:03.994Z,19.20
2019-03-22T11:28:29.271Z,17.93
2019-03-22T11:31:04.690Z,19.17
2019-03-22T11:33:29.109Z,19.50
2019-03-22T11:35:58.227Z,21.00
2019-03-22T11:38:27.235Z,19.97
2019-03-22T11:40:56.757Z,19.77
2019-03-22T11:43:26.027Z,20.50
2019-03-22T11:45:55.164Z,20.70
2019-03-22T11:48:24.134Z,21.90
2019-03-22T11:50:53.167Z,21.47
2019-03-22T11:53:22.229Z,20.77
2019-03-22T11:55:52.959Z,19.83
2019-03-22T11:58:22.030Z,22.63
2019-03-22T12:00:51.172Z,20.43
2019-03-22T12:03:20.245Z,20.13
2019-03-22T12:05:49.313Z,20.37
2019-03-22T12:08:18.494Z,20.20
2019-03-22T12:10:47.579Z,20.97
2019-03-22T12:13:16.623Z,21.20
2019-03-22T12:15:48.631Z,19.77
2019-03-22T12:18:17.688Z,20.23
2019-03-22T12:20:46.686Z,20.80
2019-03-22T12:23:15.763Z,20.83
2019-03-22T12:25:44.868Z,19.60
2019-03-22T12:28:13.968Z,20.77
2019-03-22T12:30:43.095Z,20.73
2019-03-22T12:33:12.111Z,19.87
2019-03-22T12:35:42.643Z,20.53
2019-03-22T12:38:11.839Z,18.73
2019-03-22T12:40:40.836Z,19.70
2019-03-22T12:43:09.943Z,20.53
2019-03-22T12:45:39.485Z,19.73
2019-03-22T12:48:08.494Z,20.40
2019-03-22T12:50:37.877Z,20.80
2019-03-22T12:53:06.951Z,21.10
2019-03-22T12:55:36.109Z,21.10
2019-03-22T12:58:05.241Z,19.93
2019-03-22T13:00:34.286Z,20.53
2019-03-22T13:03:03.262Z,21.17
2019-03-22T13:05:32.281Z,20.33
2019-03-22T13:08:01.375Z,21.57
2019-03-22T13:10:30.467Z,20.73
2019-03-22T13:12:59.836Z,21.23
2019-03-22T13:15:28.806Z,20.97
2019-03-22T13:17:57.834Z,20.83
2019-03-22T13:20:26.838Z,21.23
2019-03-22T13:22:55.850Z,22.10
2019-03-22T13:25:24.943Z,22.10
2019-03-22T13:27:55.589Z,22.03
2019-03-22T13:30:31.339Z,22.73
2019-03-22T13:33:00.431Z,22.83
2019-03-22T13:35:29.573Z,21.73
2019-03-22T13:37:58.669Z,24.40
2019-03-22T13:40:27.660Z,22.77
2019-03-22T13:42:56.731Z,23.80
2019-03-22T13:45:25.721Z,22.47
2019-03-22T13:47:54.862Z,22.87
2019-03-22T13:50:23.908Z,23.60
2019-03-22T13:52:52.946Z,22.77
2019-03-22T13:55:22.050Z,24.23
2019-03-22T13:57:51.224Z,23.40
2019-03-22T14:00:20.457Z,23.03
2019-03-22T14:02:49.501Z,24.53
2019-03-22T14:05:18.654Z,23.63
2019-03-22T14:07:47.731Z,24.10
2019-03-22T14:10:31.612Z,24.97
2019-03-22T14:13:01.079Z,24.63
2019-03-22T14:15:34.917Z,24.97
2019-03-22T14:18:04.036Z,23.90
2019-03-22T14:20:33.120Z,23.17
2019-03-22T14:23:02.173Z,23.73
2019-03-22T14:25:32.126Z,24.43
2019-03-22T14:28:01.322Z,25.33
2019-03-22T14:30:30.441Z,25.63
2019-03-22T14:33:00.837Z,25.77
2019-03-22T14:35:29.973Z,25.13
2019-03-22T14:37:59.003Z,23.90
2019-03-22T14:40:28.138Z,23.90
2019-03-22T14:42:57.177Z,25.10
2019-03-22T14:45:26.291Z,25.47
2019-03-22T14:47:55.387Z,24.70
2019-03-22T14:50:24.397Z,25.53
2019-03-22T14:52:53.598Z,23.80
2019-03-22T14:55:22.708Z,24.40
2019-03-22T14:57:52.413Z,25.50
2019-03-22T15:00:24.345Z,24.17
2019-03-22T15:02:54.963Z,24.87
2019-03-22T15:05:24.095Z,26.10
2019-03-22T15:07:53.110Z,24.17
2019-03-22T15:10:22.221Z,26.60
2019-03-22T15:12:51.688Z,23.20
2019-03-22T15:15:49.009Z,24.20
2019-03-22T15:18:40.060Z,24.20
2019-03-22T15:21:45.019Z,24.83
2019-03-22T15:24:51.627Z,23.10
2019-03-22T15:27:45.392Z,24.37
2019-03-22T15:30:33.500Z,23.70
2019-03-22T15:33:34.112Z,25.13
2019-03-22T15:36:32.928Z,25.43
2019-03-22T15:39:17.713Z,26.43
2019-03-22T15:41:47.071Z,23.43
2019-03-22T15:44:16.235Z,23.90
2019-03-22T15:46:45.360Z,25.70
2019-03-22T15:49:18.535Z,24.40
2019-03-22T15:51:48.837Z,25.63
2019-03-22T15:54:18.089Z,24.47
2019-03-22T15:56:47.210Z,24.77
2019-03-22T15:59:16.293Z,25.43
2019-03-22T16:01:50.940Z,23.87
2019-03-22T16:04:20.044Z,25.37
2019-03-22T16:06:49.205Z,24.37
2019-03-22T16:09:18.329Z,24.23
2019-03-22T16:11:47.354Z,24.07
2019-03-22T16:14:18.753Z,25.37
2019-03-22T16:16:47.865Z,25.20
2019-03-22T16:19:16.914Z,25.10
2019-03-22T16:21:45.929Z,24.77
2019-03-22T16:24:14.964Z,24.97
2019-03-22T16:26:43.969Z,26.53
2019-03-22T16:29:13.024Z,26.97
2019-03-22T16:31:42.105Z,27.07
2019-03-22T16:34:11.107Z,25.67
2019-03-22T16:36:40.211Z,25.90
2019-03-22T16:39:09.187Z,26.27
2019-03-22T16:41:38.201Z,26.03
2019-03-22T16:44:07.248Z,26.07
2019-03-22T16:46:36.385Z,24.40
2019-03-22T16:49:05.501Z,25.53
2019-03-22T16:51:34.587Z,27.00
2019-03-22T16:54:03.673Z,25.67
2019-03-22T16:56:32.666Z,26.67
2019-03-22T16:59:01.745Z,26.00
2019-03-22T17:01:30.891Z,25.93
2019-03-22T17:04:04.337Z,27.73
2019-03-22T17:06:30.791Z,27.70
2019-03-22T17:09:00.473Z,27.50
2019-03-22T17:11:29.625Z,26.30
2019-03-22T17:13:58.785Z,28.17
2019-03-22T17:16:30.625Z,28.73
2019-03-22T17:18:59.793Z,28.50
2019-03-22T17:21:28.907Z,29.43
2019-03-22T17:23:58.091Z,29.53
2019-03-22T17:26:27.244Z,28.47
2019-03-22T17:28:56.315Z,30.73
2019-03-22T17:31:25.408Z,28.80
2019-03-22T17:33:54.513Z,27.87
2019-03-22T17:36:25.759Z,28.53
2019-03-22T17:38:54.995Z,28.37
2019-03-22T17:41:24.298Z,28.53
2019-03-22T17:43:53.471Z,27.60
2019-03-22T17:46:22.666Z,26.57
2019-03-22T17:48:52.077Z,25.33
2019-03-22T17:51:21.142Z,27.60
2019-03-22T17:53:50.275Z,27.07
2019-03-22T17:56:19.302Z,27.50
2019-03-22T17:58:48.429Z,26.47
2019-03-22T18:01:17.635Z,26.70
2019-03-22T18:03:46.753Z,27.33
2019-03-22T18:06:15.905Z,27.87
2019-03-22T18:08:45.020Z,26.73
2019-03-22T18:11:14.292Z,26.43
2019-03-22T18:13:43.543Z,26.23
2019-03-22T18:16:12.667Z,26.83
2019-03-22T18:18:41.786Z,27.17
2019-03-22T18:21:10.857Z,25.00
2019-03-22T18:23:40.274Z,26.53
2019-03-22T18:26:09.525Z,26.57
2019-03-22T18:28:49.915Z,25.83
2019-03-22T18:31:15.103Z,25.97
2019-03-22T18:33:44.317Z,26.33
2019-03-22T18:36:13.334Z,26.77
2019-03-22T18:38:42.627Z,27.63
2019-03-22T18:41:11.795Z,25.63
2019-03-22T18:43:40.941Z,26.37
2019-03-22T18:46:10.524Z,26.60
2019-03-22T18:48:39.554Z,28.00
2019-03-22T18:51:08.837Z,27.27
2019-03-22T18:53:38.052Z,27.57
2019-03-22T18:56:07.253Z,28.80
2019-03-22T18:58:36.379Z,27.27
2019-03-22T19:01:05.499Z,27.87
2019-03-22T19:03:34.587Z,28.57
2019-03-22T19:06:03.689Z,28.93
2019-03-22T19:08:33.023Z,27.30
2019-03-22T19:11:02.068Z,27.90
2019-03-22T19:13:31.175Z,28.57
2019-03-22T19:16:00.265Z,28.23
2019-03-22T19:18:32.777Z,27.60
2019-03-22T19:21:02.071Z,27.77
2019-03-22T19:23:31.216Z,29.20
2019-03-22T19:26:02.944Z,26.83
2019-03-22T19:28:32.027Z,25.17
2019-03-22T19:31:01.159Z,28.40
2019-03-22T19:33:30.312Z,28.13
2019-03-22T19:35:59.836Z,25.97
2019-03-22T19:38:28.944Z,27.93
2019-03-22T19:40:58.127Z,28.43
2019-03-22T19:43:27.315Z,28.07
2019-03-22T19:45:56.470Z,29.80
2019-03-22T19:48:25.698Z,27.67
2019-03-22T19:50:54.911Z,29.50
2019-03-22T19:53:24.077Z,26.77
2019-03-22T19:55:53.219Z,27.83
2019-03-22T19:58:22.450Z,29.47
2019-03-22T20:00:51.579Z,27.53
2019-03-22T20:03:21.685Z,29.03
2019-03-22T20:05:51.010Z,26.43
2019-03-22T20:08:20.152Z,29.20
2019-03-22T20:10:49.366Z,29.40
2019-03-22T20:13:18.521Z,30.20
2019-03-22T20:15:47.966Z,28.87
2019-03-22T20:18:17.174Z,28.80
2019-03-22T20:20:46.406Z,29.67
2019-03-22T20:23:15.634Z,28.07
2019-03-22T20:25:44.847Z,27.37
2019-03-22T20:28:14.103Z,29.00
2019-03-22T20:30:43.621Z,28.70
2019-03-22T20:33:12.836Z,29.37
2019-03-22T20:35:42.015Z,30.00
2019-03-22T20:38:11.264Z,29.57
2019-03-22T20:40:40.600Z,29.20
2019-03-22T20:43:12.655Z,27.90
2019-03-22T20:45:41.822Z,28.43
2019-03-22T20:48:11.090Z,29.00
2019-03-22T20:50:40.219Z,29.07
2019-03-22T20:53:12.011Z,28.97
2019-03-22T20:55:43.283Z,28.53
2019-03-22T20:58:12.588Z,28.47
2019-03-22T21:00:41.942Z,29.47
2019-03-22T21:03:11.239Z,29.83
2019-03-22T21:05:43.308Z,28.47
2019-03-22T21:08:12.460Z,28.70
2019-03-22T21:10:41.557Z,29.33
2019-03-22T21:13:10.747Z,28.10
2019-03-22T21:15:41.796Z,28.67
2019-03-22T21:18:10.885Z,29.27
2019-03-22T21:20:40.007Z,29.63
2019-03-22T21:23:11.707Z,29.83
2019-03-22T21:25:40.838Z,28.10
2019-03-22T21:28:09.944Z,29.40
2019-03-22T21:30:39.023Z,30.47
2019-03-22T21:33:10.304Z,28.77
2019-03-22T21:35:39.352Z,28.87
2019-03-22T21:38:11.106Z,31.07
2019-03-22T21:40:39.231Z,29.40
2019-03-22T21:43:11.308Z,30.40
2019-03-22T21:45:40.452Z,29.93
2019-03-22T21:48:09.521Z,29.80
2019-03-22T21:50:38.991Z,29.37
2019-03-22T21:53:08.319Z,28.97
2019-03-22T21:55:37.335Z,29.27
2019-03-22T21:58:06.902Z,29.03
2019-03-22T22:00:36.515Z,29.77
2019-03-22T22:03:05.527Z,29.90
2019-03-22T22:05:34.663Z,29.07
2019-03-22T22:08:03.738Z,29.53
2019-03-22T22:10:32.903Z,28.67
2019-03-22T22:13:02.008Z,29.73
2019-03-22T22:15:31.121Z,31.30
2019-03-22T22:18:00.530Z,31.57
2019-03-22T22:20:31.284Z,30.23
2019-03-22T22:23:00.418Z,30.40
2019-03-22T22:25:29.918Z,30.83
2019-03-22T22:27:59.080Z,29.90
2019-03-22T22:30:28.183Z,30.33
2019-03-22T22:32:57.261Z,29.87
2019-03-22T22:35:26.606Z,30.33
2019-03-22T22:37:57.412Z,29.23
2019-03-22T22:40:30.732Z,31.43
2019-03-22T22:42:59.859Z,29.43
2019-03-22T22:45:29.198Z,31.03
2019-03-22T22:47:58.229Z,32.03
2019-03-22T22:50:27.539Z,29.50
2019-03-22T22:52:56.611Z,29.20
2019-03-22T22:55:25.698Z,29.40
2019-03-22T22:57:56.789Z,30.17
2019-03-22T23:00:27.422Z,31.33
2019-03-22T23:02:56.458Z,30.43
2019-03-22T23:05:25.522Z,30.07
2019-03-22T23:07:54.592Z,31.27
2019-03-22T23:10:23.618Z,30.33
2019-03-22T23:12:52.720Z,30.20
2019-03-22T23:15:21.788Z,30.23
2019-03-22T23:17:50.896Z,28.60
2019-03-22T23:20:20.010Z,30.10
2019-03-22T23:22:49.090Z,30.27
2019-03-22T23:25:18.113Z,29.97
2019-03-22T23:27:47.210Z,29.43
2019-03-22T23:30:16.292Z,29.60
2019-03-22T23:32:45.354Z,30.07
2019-03-22T23:35:14.447Z,30.60
2019-03-22T23:37:45.221Z,29.83
2019-03-22T23:40:14.261Z,29.60
2019-03-22T23:42:44.369Z,29.77
2019-03-22T23:45:13.523Z,31.03
2019-03-22T23:47:42.556Z,30.27
2019-03-22T23:50:11.563Z,29.03
2019-03-22T23:52:40.736Z,28.70
2019-03-22T23:55:09.919Z,29.93
2019-03-22T23:57:46.676Z,29.77
